OPA Logo
 

ASOS: KRDM
At:2017.02.25 1956 UTC
Wind:170° @ 6KT
Viz: 10 mile(s)
Sky: clear
Temp: 39.0 F (3.9 C)
DewP: 18.0 F (-7.8 C)
RH: 42%
Baro: 30.1 in.
ob: KRDM 251956Z 17006KT 10SM CLR 04/M08 A3010 RMK AO2 SLP215 T00391078
Apache-SSL Logo

Valid HTML 4.01!

Central Oregon OPA Chapter

Upcoming Fly Outs


2004

June

12 Bend, OR - Flying Festival - Bend Airport

Other Fly-Out pages

Oregon Pilots Association Events Calendar

Washington Pilots Association Events

Past Fly Outs


Caldwell, ID and the Kitfox factory February 2002

XMAS Party 2001

Pasco, WA November 2001

Bend Airport Open House 2001

Flyout May 2001 to Flying M Ranch

Flyout April 2001 to Tillamook Air Museum


Web page by: gem@rellim.com